Time;durP1;ratioP1;P1;durP2;ratioP2;P2;SDS_P1;SDS_P2;PMS_P1;PMS_P2;Temp;Humidity;BMP_temperature;BMP_pressure;BME280_temperature;BME280_humidity;BME280_pressure;Samples;Min_cycle;Max_cycle;Signal;HPM_P1;HPM_P2
2022/06/28 00:00:00;;;;;;;18.10;16.30;;;22.70;1.00;;;;;;5030161;28;20448;-53
2022/06/28 00:02:26;;;;;;;17.07;15.37;;;22.60;1.00;;;;;;5022055;28;20450;-56
2022/06/28 00:04:51;;;;;;;18.50;16.13;;;22.50;1.00;;;;;;5028493;28;20199;-53
2022/06/28 00:07:17;;;;;;;18.77;16.87;;;22.30;1.00;;;;;;5034880;28;20200;-55
2022/06/28 00:09:43;;;;;;;20.70;18.67;;;22.10;1.00;;;;;;5026910;28;20212;-54
2022/06/28 00:12:09;;;;;;;18.83;16.93;;;22.00;26.30;;;;;;5032308;28;20223;-53
2022/06/28 00:17:19;;;;;;;21.37;18.93;;;21.80;99.90;;;;;;5020933;28;20438;-56
2022/06/28 00:19:45;;;;;;;21.73;19.70;;;21.70;99.90;;;;;;5020868;28;20540;-55
2022/06/28 00:22:11;;;;;;;26.47;21.90;;;21.60;99.90;;;;;;5025912;28;20216;-56
2022/06/28 00:24:37;;;;;;;23.50;21.20;;;21.50;99.90;;;;;;5027194;28;20272;-54
2022/06/28 00:27:03;;;;;;;25.67;22.87;;;21.40;99.90;;;;;;5029834;28;20224;-54
2022/06/28 00:29:28;;;;;;;25.77;23.03;;;21.30;99.90;;;;;;5025986;28;20465;-54
2022/06/28 00:31:54;;;;;;;24.37;22.10;;;21.30;99.90;;;;;;5029899;28;20439;-54
2022/06/28 00:34:19;;;;;;;27.30;23.63;;;21.30;99.90;;;;;;5022325;28;20212;-55
2022/06/28 00:36:45;;;;;;;23.97;21.53;;;21.40;99.90;;;;;;5030386;28;20246;-56
2022/06/28 00:39:11;;;;;;;21.80;19.60;;;21.40;99.90;;;;;;5029681;28;20559;-53
2022/06/28 00:41:38;;;;;;;22.87;20.57;;;21.30;99.90;;;;;;5042051;28;20192;-55
2022/06/28 00:44:04;;;;;;;22.23;20.00;;;21.30;99.90;;;;;;5023776;28;20543;-53
2022/06/28 00:46:33;;;;;;;24.30;20.17;;;21.10;99.90;;;;;;5027945;28;20500;-55
2022/06/28 00:49:00;;;;;;;21.47;19.23;;;21.00;99.90;;;;;;5019825;28;20474;-52
2022/06/28 00:51:26;;;;;;;21.60;18.23;;;21.00;99.90;;;;;;5033699;28;20458;-55
2022/06/28 00:53:53;;;;;;;21.40;19.30;;;20.90;99.90;;;;;;5030047;28;20435;-54
2022/06/28 00:56:19;;;;;;;23.60;20.33;;;20.80;99.90;;;;;;5028037;28;20941;-53
2022/06/28 00:58:44;;;;;;;19.60;17.50;;;20.80;99.90;;;;;;5029983;28;20462;-53
2022/06/28 01:01:10;;;;;;;18.80;16.80;;;20.70;99.90;;;;;;5028381;28;20714;-55
2022/06/28 01:03:36;;;;;;;19.93;17.73;;;20.50;99.90;;;;;;5037785;28;20184;-56
2022/06/28 01:06:04;;;;;;;17.87;16.07;;;20.30;99.90;;;;;;5044368;28;20196;-54
2022/06/28 01:08:30;;;;;;;20.43;17.63;;;20.30;99.90;;;;;;5036716;28;20458;-55
2022/06/28 01:10:55;;;;;;;19.53;17.53;;;20.30;99.90;;;;;;5031244;28;20501;-54
2022/06/28 01:13:21;;;;;;;18.13;16.40;;;20.20;99.90;;;;;;5032070;28;20248;-54
2022/06/28 01:15:47;;;;;;;19.90;17.87;;;20.10;99.90;;;;;;5033016;28;20733;-55
2022/06/28 01:18:13;;;;;;;19.67;17.53;;;20.20;99.90;;;;;;5028548;28;20591;-54
2022/06/28 01:20:43;;;;;;;20.30;17.53;;;20.20;99.90;;;;;;5028499;28;21035;-56
2022/06/28 01:23:09;;;;;;;21.43;17.60;;;20.10;99.90;;;;;;5043807;28;20793;-55
2022/06/28 01:25:35;;;;;;;24.40;19.63;;;20.10;99.90;;;;;;5032873;28;20454;-55
2022/06/28 01:28:01;;;;;;;21.57;19.23;;;20.10;99.90;;;;;;5029130;28;20241;-55
2022/06/28 01:30:27;;;;;;;22.80;20.40;;;20.10;99.90;;;;;;5037848;28;20500;-54
2022/06/28 01:32:54;;;;;;;22.43;20.13;;;20.20;99.90;;;;;;5039541;28;20439;-53
2022/06/28 01:35:19;;;;;;;22.77;20.37;;;20.30;99.90;;;;;;5024651;28;20451;-54
2022/06/28 01:37:49;;;;;;;22.93;20.43;;;20.30;99.90;;;;;;5031713;28;20940;-56
2022/06/28 01:40:15;;;;;;;23.80;20.80;;;20.30;99.90;;;;;;5029416;28;20515;-55
2022/06/28 01:42:41;;;;;;;20.63;18.63;;;20.30;99.90;;;;;;5027850;28;20450;-54
2022/06/28 01:45:08;;;;;;;22.73;19.27;;;20.40;99.90;;;;;;5027208;28;20188;-55
2022/06/28 01:47:35;;;;;;;21.43;18.20;;;20.60;99.90;;;;;;5032351;28;20438;-55
2022/06/28 01:50:01;;;;;;;21.60;19.30;;;20.70;99.90;;;;;;5024168;28;20463;-54
2022/06/28 01:52:27;;;;;;;22.90;20.50;;;20.70;99.90;;;;;;5032588;28;20497;-55
2022/06/28 01:54:53;;;;;;;22.00;19.70;;;20.70;99.90;;;;;;5030809;28;20459;-55
2022/06/28 01:57:18;;;;;;;21.60;19.47;;;20.80;99.90;;;;;;5029557;28;20258;-54
2022/06/28 01:59:44;;;;;;;19.97;17.77;;;20.70;99.90;;;;;;5035850;28;20196;-53
2022/06/28 02:02:10;;;;;;;20.50;18.50;;;20.80;99.90;;;;;;5024170;28;20535;-55
2022/06/28 02:04:35;;;;;;;20.70;18.60;;;20.90;99.90;;;;;;5028257;28;20535;-53
2022/06/28 02:07:01;;;;;;;19.10;17.10;;;20.90;99.90;;;;;;5023076;28;20204;-53
2022/06/28 02:09:28;;;;;;;20.03;17.97;;;21.00;99.90;;;;;;5029905;28;20213;-56
2022/06/28 02:11:54;;;;;;;20.50;18.40;;;21.10;99.90;;;;;;5025151;28;20513;-54
2022/06/28 02:14:20;;;;;;;20.43;18.27;;;21.10;99.90;;;;;;5031565;28;20954;-55
2022/06/28 02:16:46;;;;;;;19.50;17.30;;;21.10;99.90;;;;;;5026981;28;20193;-56
2022/06/28 02:19:12;;;;;;;20.40;18.27;;;21.30;99.90;;;;;;5028859;28;20487;-54
2022/06/28 02:21:43;;;;;;;19.97;17.87;;;21.30;99.90;;;;;;5027824;28;20482;-55
2022/06/28 02:24:10;;;;;;;20.83;17.83;;;21.40;99.90;;;;;;5031465;28;20805;-53
2022/06/28 02:26:36;;;;;;;19.80;17.90;;;21.30;99.90;;;;;;5029314;28;20479;-55
2022/06/28 02:29:04;;;;;;;19.57;17.47;;;21.20;99.90;;;;;;5042824;28;20467;-53
2022/06/28 02:31:30;;;;;;;20.37;18.27;;;21.10;99.90;;;;;;5029676;28;20191;-54
2022/06/28 02:33:56;;;;;;;20.03;17.93;;;21.10;99.90;;;;;;5028612;28;20514;-55
2022/06/28 02:41:45;;;;;;;18.53;16.63;;;21.00;99.90;;;;;;5039013;28;20983;-55
2022/06/28 02:44:11;;;;;;;20.60;18.50;;;21.10;99.90;;;;;;5028062;28;20443;-56
2022/06/28 02:46:37;;;;;;;19.97;17.87;;;21.30;99.90;;;;;;5028397;28;20466;-54
2022/06/28 02:49:03;;;;;;;19.80;17.70;;;21.30;99.90;;;;;;5033253;28;20216;-54
2022/06/28 02:51:29;;;;;;;18.60;16.70;;;21.40;99.90;;;;;;5027011;28;20274;-55
2022/06/28 02:53:55;;;;;;;20.47;18.30;;;21.60;96.40;;;;;;5029445;28;20467;-54
2022/06/28 02:56:21;;;;;;;20.13;18.13;;;21.60;47.00;;;;;;5024080;28;20242;-55
2022/06/28 02:58:47;;;;;;;22.33;18.00;;;21.50;53.90;;;;;;5029519;28;20529;-54
2022/06/28 03:01:13;;;;;;;22.13;18.37;;;21.60;56.00;;;;;;5032473;28;20451;-54
2022/06/28 03:03:40;;;;;;;19.13;17.33;;;21.70;47.90;;;;;;5032975;28;20451;-54
2022/06/28 03:06:06;;;;;;;19.57;17.50;;;21.70;40.60;;;;;;5038931;28;20188;-56
2022/06/28 03:08:32;;;;;;;19.60;17.53;;;21.80;1.00;;;;;;5031006;28;20566;-53
2022/06/28 03:10:57;;;;;;;19.47;17.57;;;21.60;1.00;;;;;;5026054;28;20570;-54
2022/06/28 03:13:23;;;;;;;19.53;17.63;;;21.50;1.00;;;;;;5031232;28;20904;-55
2022/06/28 03:15:49;;;;;;;17.13;15.53;;;21.50;1.00;;;;;;5035452;28;20185;-54
2022/06/28 03:18:16;;;;;;;16.23;14.63;;;21.40;1.00;;;;;;5034903;28;20192;-54
2022/06/28 03:20:42;;;;;;;18.00;16.20;;;21.40;1.00;;;;;;5027270;28;20455;-54
2022/06/28 03:23:08;;;;;;;17.07;15.57;;;21.40;1.00;;;;;;5030626;28;20975;-53
2022/06/28 03:25:33;;;;;;;17.13;15.53;;;21.40;1.00;;;;;;5025801;28;20811;-55
2022/06/28 03:27:59;;;;;;;15.77;14.23;;;21.30;1.00;;;;;;5027943;28;20475;-56
2022/06/28 03:30:25;;;;;;;13.80;12.60;;;21.30;1.00;;;;;;5029024;28;20177;-53
2022/06/28 03:32:50;;;;;;;12.70;11.43;;;21.20;1.00;;;;;;5027037;28;20500;-54
2022/06/28 03:35:16;;;;;;;13.50;12.30;;;21.10;1.00;;;;;;5030491;28;20196;-55
2022/06/28 03:37:42;;;;;;;15.97;14.27;;;21.00;1.00;;;;;;5027712;28;20185;-53
2022/06/28 03:40:08;;;;;;;17.20;15.50;;;21.10;1.00;;;;;;5029711;28;20195;-53
2022/06/28 03:42:34;;;;;;;18.00;16.20;;;21.00;1.00;;;;;;5026848;28;20219;-53
2022/06/28 03:45:00;;;;;;;17.60;15.80;;;21.00;1.00;;;;;;5027915;28;20866;-55
2022/06/28 03:47:25;;;;;;;19.40;17.50;;;20.90;1.00;;;;;;5035563;28;20271;-53
2022/06/28 03:49:51;;;;;;;20.90;19.00;;;21.00;1.00;;;;;;5037576;28;20226;-55
2022/06/28 03:52:17;;;;;;;23.83;21.50;;;21.10;1.00;;;;;;5044087;28;20268;-53
2022/06/28 03:54:43;;;;;;;21.30;19.17;;;20.90;1.00;;;;;;5027070;28;20220;-55
2022/06/28 03:57:08;;;;;;;22.90;20.70;;;20.80;1.00;;;;;;5030340;28;20515;-52
2022/06/28 03:59:36;;;;;;;23.73;21.33;;;20.70;1.00;;;;;;5033404;28;20184;-55
2022/06/28 04:02:03;;;;;;;25.00;21.90;;;20.80;1.00;;;;;;5033665;28;20860;-56
2022/06/28 04:04:29;;;;;;;23.60;21.30;;;20.70;1.00;;;;;;5022907;28;21103;-56
2022/06/28 04:06:54;;;;;;;23.30;20.90;;;20.60;1.00;;;;;;5026702;28;20446;-54
2022/06/28 04:09:20;;;;;;;23.37;21.07;;;20.60;1.00;;;;;;5026357;28;20299;-52
2022/06/28 04:11:46;;;;;;;22.13;19.83;;;20.40;1.00;;;;;;5028222;28;20653;-56
2022/06/28 04:14:13;;;;;;;22.37;20.00;;;20.40;1.00;;;;;;5025146;28;20192;-54
2022/06/28 04:16:41;;;;;;;20.93;18.93;;;20.40;1.00;;;;;;5024130;28;20198;-55
2022/06/28 04:19:07;;;;;;;22.77;20.57;;;20.40;1.00;;;;;;5021085;28;20550;-54
2022/06/28 04:21:33;;;;;;;22.13;19.13;;;20.40;1.00;;;;;;5023285;28;20455;-54
2022/06/28 04:23:58;;;;;;;24.67;22.07;;;20.30;1.00;;;;;;5029074;28;20488;-53
2022/06/28 04:26:24;;;;;;;20.43;18.43;;;20.20;1.00;;;;;;5027559;28;20257;-55
2022/06/28 04:28:50;;;;;;;22.70;20.30;;;20.20;1.00;;;;;;5035595;28;20211;-52
2022/06/28 04:31:15;;;;;;;22.73;20.63;;;20.30;1.00;;;;;;5043930;28;20561;-55
2022/06/28 04:33:41;;;;;;;23.33;21.13;;;20.40;1.00;;;;;;5032273;28;20226;-54
2022/06/28 04:36:07;;;;;;;23.27;20.87;;;20.50;1.00;;;;;;5028511;28;20181;-53
2022/06/28 04:38:33;;;;;;;25.23;22.70;;;20.50;1.00;;;;;;5027373;28;20513;-54
2022/06/28 04:40:58;;;;;;;22.73;20.30;;;20.50;1.00;;;;;;5038299;28;20187;-52
2022/06/28 04:43:24;;;;;;;23.90;21.50;;;20.50;1.00;;;;;;5036034;28;20180;-54
2022/06/28 04:45:50;;;;;;;24.13;21.73;;;20.40;1.00;;;;;;5040488;28;20276;-55
2022/06/28 04:48:15;;;;;;;23.90;21.50;;;20.40;1.00;;;;;;5035584;28;20208;-56
2022/06/28 04:50:41;;;;;;;24.20;21.70;;;20.30;1.00;;;;;;5027212;28;20193;-55
2022/06/28 04:53:07;;;;;;;22.30;20.00;;;20.30;1.00;;;;;;5025692;28;20189;-53
2022/06/28 04:55:32;;;;;;;24.90;22.20;;;20.20;1.00;;;;;;5026678;28;20199;-54
2022/06/28 04:57:58;;;;;;;24.60;22.03;;;20.30;1.00;;;;;;5033261;28;20226;-53
2022/06/28 05:00:23;;;;;;;25.47;22.87;;;20.30;1.00;;;;;;5029803;28;20192;-56
2022/06/28 05:02:49;;;;;;;23.93;21.47;;;20.40;1.00;;;;;;5033523;28;20630;-53
2022/06/28 05:05:15;;;;;;;25.10;22.70;;;20.50;1.00;;;;;;5030639;28;20184;-54
2022/06/28 05:07:40;;;;;;;24.03;21.63;;;20.60;1.00;;;;;;5038598;28;20279;-52
2022/06/28 05:10:07;;;;;;;23.13;20.83;;;20.60;1.00;;;;;;5033601;28;20218;-55
2022/06/28 05:12:32;;;;;;;24.87;22.37;;;20.70;1.00;;;;;;5032241;28;20517;-55
2022/06/28 05:14:58;;;;;;;24.73;21.83;;;20.70;1.00;;;;;;5034853;28;20620;-57
2022/06/28 05:17:24;;;;;;;23.80;21.23;;;20.50;1.00;;;;;;5024370;28;20193;-52
2022/06/28 05:19:51;;;;;;;26.33;23.00;;;20.50;1.00;;;;;;5032779;28;20977;-54
2022/06/28 05:22:16;;;;;;;23.50;21.10;;;20.50;1.00;;;;;;5028226;28;20196;-54
2022/06/28 05:24:42;;;;;;;23.33;21.13;;;20.50;1.00;;;;;;5033197;28;20454;-54
2022/06/28 05:27:07;;;;;;;23.40;21.10;;;20.60;1.00;;;;;;5043912;28;20228;-55
2022/06/28 05:29:33;;;;;;;23.90;21.40;;;20.80;1.00;;;;;;5042302;28;20301;-55
2022/06/28 05:31:59;;;;;;;23.47;20.97;;;20.90;1.00;;;;;;5036044;28;20323;-55
2022/06/28 05:34:25;;;;;;;24.33;21.13;;;20.90;1.00;;;;;;5040112;28;20513;-53
2022/06/28 05:36:51;;;;;;;23.10;20.90;;;21.00;1.00;;;;;;5043097;28;20181;-55
2022/06/28 05:39:16;;;;;;;26.40;22.27;;;21.00;1.00;;;;;;5048164;28;20215;-56
2022/06/28 05:41:43;;;;;;;23.33;20.83;;;21.00;1.00;;;;;;5044523;28;20192;-54
2022/06/28 05:44:10;;;;;;;24.23;21.80;;;21.00;1.00;;;;;;5036304;28;20196;-54
2022/06/28 05:46:36;;;;;;;21.13;19.07;;;21.00;1.00;;;;;;5028242;28;20417;-53
2022/06/28 05:49:02;;;;;;;23.90;21.50;;;21.20;1.00;;;;;;5029585;28;20471;-54
2022/06/28 05:51:29;;;;;;;22.60;20.50;;;21.30;1.00;;;;;;5027661;28;21001;-52
2022/06/28 05:53:56;;;;;;;21.40;19.43;;;21.50;1.00;;;;;;5023549;28;20454;-55
2022/06/28 05:56:21;;;;;;;20.53;18.37;;;21.60;1.00;;;;;;5024559;28;20561;-56
2022/06/28 05:58:47;;;;;;;21.63;19.47;;;21.40;1.00;;;;;;5025811;28;20530;-55
2022/06/28 06:01:12;;;;;;;22.43;20.03;;;21.30;1.00;;;;;;5031374;28;20267;-55
2022/06/28 06:03:38;;;;;;;21.83;19.83;;;21.50;1.00;;;;;;5023760;28;20192;-53
2022/06/28 06:06:04;;;;;;;23.43;21.00;;;21.70;1.00;;;;;;5032139;28;20295;-56
2022/06/28 06:08:30;;;;;;;22.37;20.33;;;21.60;1.00;;;;;;5028839;28;20197;-55
2022/06/28 06:10:55;;;;;;;21.57;19.67;;;21.50;1.00;;;;;;5039823;28;20529;-55
2022/06/28 06:13:21;;;;;;;21.67;19.47;;;21.50;1.00;;;;;;5031535;28;20748;-54
2022/06/28 06:15:47;;;;;;;22.70;19.70;;;21.70;1.00;;;;;;5030521;28;20181;-54
2022/06/28 06:18:12;;;;;;;21.33;19.23;;;21.90;1.00;;;;;;5031736;28;20649;-55
2022/06/28 06:20:38;;;;;;;22.83;20.43;;;22.00;1.00;;;;;;5042587;28;20188;-55
2022/06/28 06:23:03;;;;;;;19.33;17.37;;;22.30;1.00;;;;;;5029699;28;20243;-54
2022/06/28 06:25:29;;;;;;;22.23;19.70;;;22.20;1.00;;;;;;5029064;28;20185;-55
2022/06/28 06:27:54;;;;;;;20.00;17.90;;;22.10;1.00;;;;;;5030729;28;20234;-55
2022/06/28 06:30:20;;;;;;;22.30;19.80;;;22.10;1.00;;;;;;5031769;28;20682;-54
2022/06/28 06:32:46;;;;;;;20.83;18.80;;;22.10;1.00;;;;;;5038293;28;20551;-55
2022/06/28 06:35:12;;;;;;;20.93;18.83;;;22.00;1.00;;;;;;5030535;28;20635;-53
2022/06/28 06:37:37;;;;;;;21.43;19.20;;;22.00;1.00;;;;;;5029229;28;20444;-55
2022/06/28 06:40:04;;;;;;;22.30;20.00;;;22.20;1.00;;;;;;5051223;28;20245;-54
2022/06/28 06:42:29;;;;;;;21.07;19.17;;;22.40;1.00;;;;;;5037945;28;20220;-56
2022/06/28 06:44:55;;;;;;;21.67;19.40;;;22.30;1.00;;;;;;5030669;28;20467;-53
2022/06/28 06:47:21;;;;;;;20.00;18.10;;;22.20;1.00;;;;;;5028038;28;20201;-57
2022/06/28 06:49:46;;;;;;;22.00;19.17;;;22.20;1.00;;;;;;5037812;28;20511;-53
2022/06/28 06:52:12;;;;;;;23.37;21.13;;;22.30;1.00;;;;;;5036188;28;20245;-55
2022/06/28 06:54:38;;;;;;;20.67;18.33;;;22.40;1.00;;;;;;5030113;28;20181;-54
2022/06/28 06:57:03;;;;;;;22.53;17.33;;;22.60;1.00;;;;;;5029489;28;20196;-53
2022/06/28 06:59:29;;;;;;;19.30;17.27;;;23.00;1.00;;;;;;5034032;28;20245;-54
2022/06/28 07:01:55;;;;;;;19.07;16.10;;;22.80;1.00;;;;;;5040522;28;20234;-54
2022/06/28 07:04:20;;;;;;;21.53;18.30;;;22.60;1.00;;;;;;5049878;28;20538;-54
2022/06/28 07:06:46;;;;;;;18.87;16.43;;;22.80;1.00;;;;;;5028596;28;20323;-53
2022/06/28 07:09:12;;;;;;;21.30;16.57;;;22.60;1.00;;;;;;5027634;28;20616;-54
2022/06/28 07:11:37;;;;;;;17.00;15.13;;;22.50;1.00;;;;;;5027899;28;20200;-54
2022/06/28 07:14:03;;;;;;;19.33;16.23;;;22.50;1.00;;;;;;5030345;28;20439;-53
2022/06/28 07:16:30;;;;;;;17.30;15.17;;;22.50;1.00;;;;;;5040639;28;20200;-54
2022/06/28 07:18:56;;;;;;;15.73;14.03;;;22.60;1.00;;;;;;5030450;28;20188;-56
2022/06/28 07:21:22;;;;;;;16.40;14.70;;;22.70;1.00;;;;;;5029412;28;20484;-57
2022/06/28 07:23:48;;;;;;;15.00;13.40;;;22.80;1.00;;;;;;5028042;28;20776;-53
2022/06/28 07:26:14;;;;;;;16.27;14.63;;;22.80;1.00;;;;;;5030517;28;20421;-55
2022/06/28 07:28:40;;;;;;;15.77;14.20;;;23.10;1.00;;;;;;5031199;28;20212;-55
2022/06/28 07:31:05;;;;;;;19.10;15.37;;;23.40;1.00;;;;;;5029550;28;20443;-55
2022/06/28 07:33:31;;;;;;;15.90;14.30;;;23.50;1.00;;;;;;5027228;28;20263;-55
2022/06/28 07:35:57;;;;;;;15.97;14.37;;;23.70;1.00;;;;;;5028574;28;20180;-56
2022/06/28 07:38:22;;;;;;;17.33;15.83;;;23.80;1.00;;;;;;5027484;28;20339;-53
2022/06/28 07:40:48;;;;;;;16.47;14.80;;;23.90;1.00;;;;;;5029004;28;20192;-55
2022/06/28 07:43:13;;;;;;;18.30;16.47;;;24.00;1.00;;;;;;5028195;28;20223;-55
2022/06/28 07:45:40;;;;;;;19.43;16.03;;;24.00;1.00;;;;;;5032657;28;20522;-56
2022/06/28 07:48:07;;;;;;;18.73;16.87;;;23.80;1.00;;;;;;5029163;28;20212;-54
2022/06/28 07:53:18;;;;;;;17.43;15.60;;;23.50;1.00;;;;;;5026840;28;20433;-52
2022/06/28 07:55:43;;;;;;;20.37;18.37;;;23.40;1.00;;;;;;5028602;28;20451;-54
2022/06/28 07:58:09;;;;;;;19.97;18.07;;;23.40;1.00;;;;;;5028763;28;20280;-55
2022/06/28 08:00:35;;;;;;;19.17;17.23;;;23.40;1.00;;;;;;5026101;28;20203;-55
2022/06/28 08:03:00;;;;;;;18.87;16.80;;;23.20;1.00;;;;;;5027952;28;20191;-53
2022/06/28 08:05:26;;;;;;;17.43;15.77;;;23.10;1.00;;;;;;5028426;28;20212;-55
2022/06/28 08:07:51;;;;;;;18.17;16.53;;;23.30;1.00;;;;;;5028832;28;20189;-53
2022/06/28 08:10:17;;;;;;;19.03;17.10;;;23.60;1.00;;;;;;5031340;28;20574;-55
2022/06/28 08:12:43;;;;;;;17.57;15.87;;;23.90;1.00;;;;;;5028936;28;20181;-53
2022/06/28 08:15:10;;;;;;;20.03;18.10;;;24.10;1.00;;;;;;5029858;28;20184;-54
2022/06/28 08:17:36;;;;;;;19.57;16.87;;;24.30;1.00;;;;;;5027062;28;20445;-54
2022/06/28 08:20:02;;;;;;;22.37;20.00;;;24.20;1.00;;;;;;5028674;28;20778;-54
2022/06/28 08:22:27;;;;;;;18.53;16.63;;;24.20;1.00;;;;;;5028538;28;20191;-54
2022/06/28 08:24:53;;;;;;;19.37;17.57;;;24.00;1.00;;;;;;5029624;28;20439;-56
2022/06/28 08:27:19;;;;;;;18.10;16.30;;;23.70;1.00;;;;;;5027403;28;20319;-54
2022/06/28 08:29:45;;;;;;;19.63;17.70;;;23.30;1.00;;;;;;5028026;28;20263;-54
2022/06/28 08:32:11;;;;;;;17.73;16.00;;;23.30;1.00;;;;;;5028440;28;20476;-55
2022/06/28 08:34:39;;;;;;;18.67;16.87;;;23.30;1.00;;;;;;5029771;28;20444;-55
2022/06/28 08:37:05;;;;;;;18.30;16.47;;;23.30;1.00;;;;;;5028141;28;20638;-54
2022/06/28 08:39:32;;;;;;;19.73;17.83;;;23.30;1.00;;;;;;5028904;28;20466;-53
2022/06/28 08:42:03;;;;;;;20.20;17.50;;;23.10;1.00;;;;;;5028643;28;20813;-54
2022/06/28 08:44:35;;;;;;;17.77;16.17;;;23.10;1.00;;;;;;5026575;28;20493;-56
2022/06/28 08:47:02;;;;;;;18.40;16.67;;;22.90;1.00;;;;;;5025769;28;20447;-54
2022/06/28 08:49:36;;;;;;;18.97;16.97;;;22.90;1.00;;;;;;5025903;28;20536;-54
2022/06/28 08:52:03;;;;;;;18.30;16.67;;;23.00;1.00;;;;;;5027399;28;20541;-55
2022/06/28 08:54:30;;;;;;;21.37;19.37;;;23.10;1.00;;;;;;5027661;28;20505;-52
2022/06/28 08:56:57;;;;;;;18.10;16.33;;;23.40;1.00;;;;;;5028265;28;20460;-55
2022/06/28 08:59:22;;;;;;;17.77;16.13;;;23.80;1.00;;;;;;5026849;28;20443;-56
2022/06/28 09:01:50;;;;;;;18.07;16.37;;;24.10;1.00;;;;;;5022750;28;20432;-55
2022/06/28 09:04:16;;;;;;;17.10;15.40;;;24.40;1.00;;;;;;5028690;28;20809;-55
2022/06/28 09:06:41;;;;;;;16.50;15.00;;;24.60;1.00;;;;;;5029093;28;20548;-55
2022/06/28 09:09:07;;;;;;;16.97;15.30;;;24.90;1.00;;;;;;5028649;28;20215;-53
2022/06/28 09:11:43;;;;;;;17.33;15.83;;;24.90;1.00;;;;;;5027793;28;20189;-53
2022/06/28 09:14:27;;;;;;;17.83;16.23;;;25.60;1.00;;;;;;5029617;28;20814;-53
2022/06/28 09:16:54;;;;;;;18.70;16.90;;;25.70;1.00;;;;;;5028188;28;20793;-53
2022/06/28 09:19:33;;;;;;;17.67;16.07;;;25.60;1.00;;;;;;5034542;28;20462;-55
2022/06/28 09:22:00;;;;;;;17.33;15.73;;;25.10;1.00;;;;;;5049187;28;20761;-55
2022/06/28 09:24:26;;;;;;;17.17;15.67;;;25.30;1.00;;;;;;5034822;28;20440;-53
2022/06/28 09:27:00;;;;;;;18.00;16.40;;;25.60;1.00;;;;;;5037757;28;20605;-54
2022/06/28 09:29:26;;;;;;;19.40;17.70;;;25.90;1.00;;;;;;5045278;28;20704;-54
2022/06/28 09:31:52;;;;;;;17.60;16.03;;;25.20;1.00;;;;;;5039241;28;20438;-55
2022/06/28 09:34:18;;;;;;;17.37;15.70;;;25.00;1.00;;;;;;5046216;28;20443;-56
2022/06/28 09:36:56;;;;;;;16.17;14.67;;;24.80;1.00;;;;;;5045942;28;20176;-54
2022/06/28 09:39:27;;;;;;;16.87;15.37;;;24.70;1.00;;;;;;5047532;28;20191;-55
2022/06/28 09:41:54;;;;;;;18.37;16.67;;;24.80;1.00;;;;;;5044673;28;20541;-56
2022/06/28 09:44:25;;;;;;;16.70;15.30;;;24.90;1.00;;;;;;5049850;28;20510;-56
2022/06/28 09:46:52;;;;;;;18.37;16.80;;;24.90;1.00;;;;;;5052615;28;20551;-54
2022/06/28 09:49:18;;;;;;;18.00;16.50;;;25.10;1.00;;;;;;5048972;28;20453;-54
2022/06/28 09:51:45;;;;;;;19.87;18.10;;;25.00;1.00;;;;;;5040650;28;20478;-57
2022/06/28 09:54:11;;;;;;;21.03;18.90;;;25.00;1.00;;;;;;5052403;28;20480;-54
2022/06/28 09:56:42;;;;;;;20.10;18.30;;;25.10;1.00;;;;;;5051031;28;20479;-54
2022/06/28 09:59:10;;;;;;;18.10;16.60;;;25.50;1.00;;;;;;5052096;28;20556;-54
2022/06/28 10:01:47;;;;;;;16.10;14.70;;;25.80;1.00;;;;;;5034212;28;20543;-52
2022/06/28 10:04:14;;;;;;;19.67;17.97;;;25.60;1.00;;;;;;5029854;28;20414;-58
2022/06/28 10:06:40;;;;;;;17.17;15.57;;;25.40;1.00;;;;;;5033793;28;20466;-55
2022/06/28 10:09:06;;;;;;;18.20;16.70;;;25.40;1.00;;;;;;5031230;28;20889;-55
2022/06/28 10:15:01;;;;;;;18.00;16.40;;;25.80;1.00;;;;;;5030420;28;20527;-53
2022/06/28 10:17:40;;;;;;;17.30;15.90;;;26.90;1.00;;;;;;5031323;28;20434;-53
2022/06/28 10:20:10;;;;;;;17.57;15.97;;;27.00;1.00;;;;;;5022665;28;20974;-54
2022/06/28 10:22:36;;;;;;;15.53;14.17;;;27.00;1.00;;;;;;5031009;28;20431;-55
2022/06/28 10:25:12;;;;;;;16.47;14.97;;;26.90;1.00;;;;;;5031255;28;20435;-53
2022/06/28 10:27:48;;;;;;;12.67;11.57;;;26.30;1.00;;;;;;5030335;28;20221;-55
2022/06/28 10:30:19;;;;;;;12.00;11.00;;;25.60;1.00;;;;;;5032531;28;20466;-53
2022/06/28 10:32:52;;;;;;;10.90;9.90;;;25.60;1.00;;;;;;5028817;28;20435;-54
2022/06/28 10:35:36;;;;;;;9.90;9.20;;;25.70;1.00;;;;;;5031341;28;20436;-54
2022/06/28 10:38:07;;;;;;;9.60;8.83;;;25.60;1.00;;;;;;5029016;28;20410;-53
2022/06/28 10:40:41;;;;;;;10.50;9.50;;;25.90;1.00;;;;;;5030478;28;20414;-53
2022/06/28 10:43:07;;;;;;;10.37;9.57;;;26.00;1.00;;;;;;5030285;28;20406;-54
2022/06/28 10:46:02;;;;;;;10.20;9.30;;;26.30;1.00;;;;;;5030447;28;21259;-52
2022/06/28 10:48:31;;;;;;;8.17;7.47;;;26.80;1.00;;;;;;5030747;28;20473;-54
2022/06/28 10:51:04;;;;;;;9.33;8.50;;;27.20;1.00;;;;;;5030439;28;20465;-55
2022/06/28 10:54:02;;;;;;;9.30;8.60;;;27.40;1.00;;;;;;5030116;28;20458;-53
2022/06/28 10:56:44;;;;;;;9.40;8.60;;;27.40;1.00;;;;;;5028615;28;20889;-53
2022/06/28 10:59:15;;;;;;;9.87;8.87;;;27.00;1.00;;;;;;5031197;28;20442;-54
2022/06/28 11:01:44;;;;;;;8.60;7.97;;;26.70;1.00;;;;;;5029292;28;20482;-55
2022/06/28 11:04:19;;;;;;;7.83;7.13;;;26.50;1.00;;;;;;5030571;28;20417;-54
2022/06/28 11:06:53;;;;;;;7.60;6.70;;;26.70;1.00;;;;;;5030700;28;21056;-55
2022/06/28 11:09:44;;;;;;;6.97;6.43;;;27.10;1.00;;;;;;5030873;28;20577;-54
2022/06/28 11:12:37;;;;;;;8.50;7.80;;;27.40;1.00;;;;;;5030921;28;20450;-54
2022/06/28 11:15:05;;;;;;;7.43;6.90;;;27.40;1.00;;;;;;5030767;28;20659;-57
2022/06/28 11:17:44;;;;;;;7.57;6.90;;;27.00;1.00;;;;;;5031071;28;20933;-54
2022/06/28 11:20:11;;;;;;;7.40;6.70;;;26.50;1.00;;;;;;5030775;28;20784;-54
2022/06/28 11:22:37;;;;;;;7.10;6.50;;;26.30;1.00;;;;;;5031036;28;20542;-55
2022/06/28 11:25:05;;;;;;;7.37;6.77;;;26.50;1.00;;;;;;5030966;28;21218;-54
2022/06/28 11:27:32;;;;;;;7.23;6.30;;;27.00;1.00;;;;;;5030797;28;20597;-55
2022/06/28 11:30:01;;;;;;;6.03;5.50;;;27.10;1.00;;;;;;5030054;28;20490;-55
2022/06/28 11:32:49;;;;;;;6.50;6.10;;;27.40;1.00;;;;;;5040675;28;20438;-55
2022/06/28 11:35:15;;;;;;;6.90;6.40;;;27.50;1.00;;;;;;5045285;28;20538;-53
2022/06/28 11:38:05;;;;;;;5.80;5.40;;;27.50;1.00;;;;;;5030795;28;20448;-53
2022/06/28 11:40:51;;;;;;;5.40;5.00;;;27.30;1.00;;;;;;5033902;28;20475;-56
2022/06/28 11:43:27;;;;;;;5.97;5.40;;;27.60;1.00;;;;;;5028374;28;20562;-53
2022/06/28 11:45:55;;;;;;;4.90;4.60;;;27.80;1.00;;;;;;5030519;28;20968;-55
2022/06/28 11:48:31;;;;;;;6.00;5.50;;;27.90;1.00;;;;;;5030435;28;20430;-52
2022/06/28 11:50:58;;;;;;;6.30;5.67;;;27.90;1.00;;;;;;5030194;28;20967;-53
2022/06/28 11:53:25;;;;;;;5.83;5.33;;;27.90;1.00;;;;;;5035833;28;20417;-54
2022/06/28 11:55:57;;;;;;;5.33;4.93;;;27.90;1.00;;;;;;5036192;28;20503;-52
2022/06/28 11:58:26;;;;;;;5.30;4.90;;;27.80;1.00;;;;;;5029968;28;20438;-55
2022/06/28 12:01:19;;;;;;;6.03;5.50;;;28.00;1.00;;;;;;5028890;28;20463;-52
2022/06/28 12:03:44;;;;;;;6.10;5.10;;;27.90;1.00;;;;;;5025121;28;20460;-55
2022/06/28 12:06:11;;;;;;;6.07;5.50;;;27.90;1.00;;;;;;5030148;28;20467;-53
2022/06/28 12:08:46;;;;;;;5.87;5.47;;;27.70;1.00;;;;;;5029251;28;20291;-53
2022/06/28 12:11:30;;;;;;;5.50;5.10;;;27.50;1.00;;;;;;5027439;28;20783;-52
2022/06/28 12:14:03;;;;;;;5.53;5.03;;;27.50;1.00;;;;;;5028742;28;20437;-53
2022/06/28 12:16:34;;;;;;;5.60;5.20;;;27.70;1.00;;;;;;5031088;28;20436;-52
2022/06/28 12:19:02;;;;;;;5.87;5.37;;;27.90;1.00;;;;;;5027646;28;20439;-54
2022/06/28 12:21:29;;;;;;;5.63;5.23;;;27.90;1.00;;;;;;5028556;28;20759;-52
2022/06/28 12:23:56;;;;;;;6.20;5.70;;;27.60;1.00;;;;;;5026346;28;20466;-53
2022/06/28 12:26:37;;;;;;;5.10;4.70;;;27.30;1.00;;;;;;5032421;28;20414;-53
2022/06/28 12:29:03;;;;;;;5.33;4.50;;;27.30;1.00;;;;;;5026468;28;20455;-54
2022/06/28 12:31:28;;;;;;;5.20;4.70;;;27.20;1.00;;;;;;5040183;28;20434;-55
2022/06/28 12:33:54;;;;;;;5.00;4.60;;;27.10;1.00;;;;;;5029608;28;20204;-53
2022/06/28 12:36:19;;;;;;;5.87;4.80;;;27.50;1.00;;;;;;5030534;28;20268;-54
2022/06/28 12:38:45;;;;;;;4.57;4.17;;;27.80;1.00;;;;;;5023858;28;20713;-53
2022/06/28 12:41:11;;;;;;;5.60;5.17;;;28.00;1.00;;;;;;5029793;28;20192;-56
2022/06/28 12:43:36;;;;;;;5.80;5.20;;;28.20;1.00;;;;;;5024231;28;20196;-54
2022/06/28 12:46:05;;;;;;;5.87;5.37;;;28.10;1.00;;;;;;5030181;28;20185;-54
2022/06/28 12:48:32;;;;;;;5.07;4.50;;;28.20;1.00;;;;;;5027247;28;20717;-55
2022/06/28 12:50:58;;;;;;;5.37;4.70;;;27.90;1.00;;;;;;5025438;28;20451;-56
2022/06/28 12:53:24;;;;;;;5.90;5.33;;;27.70;1.00;;;;;;5030261;28;20451;-53